sensor_id;sensor_type;location;lat;lon;timestamp;pressure;altitude;pressure_sealevel;temperature;humidity
65376;BME280;51976;47.332;9.404;2023-02-18T00:00:59;93791.91;;;9.85;59.06
65376;BME280;51976;47.332;9.404;2023-02-18T00:03:27;93791.09;;;9.85;59.39
65376;BME280;51976;47.332;9.404;2023-02-18T00:05:53;93783.25;;;9.78;59.24
65376;BME280;51976;47.332;9.404;2023-02-18T00:08:19;93792.94;;;9.79;59.36
65376;BME280;51976;47.332;9.404;2023-02-18T00:10:45;93785.25;;;9.66;59.40
65376;BME280;51976;47.332;9.404;2023-02-18T00:13:11;93785.50;;;9.65;59.36
65376;BME280;51976;47.332;9.404;2023-02-18T00:15:37;93799.22;;;9.63;59.52
65376;BME280;51976;47.332;9.404;2023-02-18T00:18:03;93774.22;;;9.41;59.40
65376;BME280;51976;47.332;9.404;2023-02-18T00:20:29;93808.88;;;9.59;59.34
65376;BME280;51976;47.332;9.404;2023-02-18T00:22:55;93813.34;;;9.48;59.54
65376;BME280;51976;47.332;9.404;2023-02-18T00:25:21;93804.38;;;9.43;59.53
65376;BME280;51976;47.332;9.404;2023-02-18T00:27:46;93779.19;;;9.27;59.37
65376;BME280;51976;47.332;9.404;2023-02-18T00:30:12;93811.47;;;9.49;59.45
65376;BME280;51976;47.332;9.404;2023-02-18T00:32:37;93800.13;;;9.47;59.37
65376;BME280;51976;47.332;9.404;2023-02-18T00:35:03;93809.91;;;9.53;59.34
65376;BME280;51976;47.332;9.404;2023-02-18T00:37:28;93805.56;;;9.52;59.17
65376;BME280;51976;47.332;9.404;2023-02-18T00:39:54;93806.66;;;9.51;59.40
65376;BME280;51976;47.332;9.404;2023-02-18T00:42:19;93793.19;;;9.51;59.31
65376;BME280;51976;47.332;9.404;2023-02-18T00:44:45;93799.16;;;9.58;59.33
65376;BME280;51976;47.332;9.404;2023-02-18T00:47:10;93797.09;;;9.65;59.39
65376;BME280;51976;47.332;9.404;2023-02-18T00:49:36;93757.91;;;9.26;59.88
65376;BME280;51976;47.332;9.404;2023-02-18T00:52:01;93796.69;;;9.52;59.80
65376;BME280;51976;47.332;9.404;2023-02-18T00:54:26;93771.84;;;9.44;60.11
65376;BME280;51976;47.332;9.404;2023-02-18T00:56:52;93792.38;;;9.50;60.32
65376;BME280;51976;47.332;9.404;2023-02-18T00:59:17;93785.09;;;9.51;60.54
65376;BME280;51976;47.332;9.404;2023-02-18T01:01:42;93787.34;;;9.59;60.58
65376;BME280;51976;47.332;9.404;2023-02-18T01:04:08;93780.78;;;9.50;61.00
65376;BME280;51976;47.332;9.404;2023-02-18T01:06:33;93793.19;;;9.51;61.22
65376;BME280;51976;47.332;9.404;2023-02-18T01:08:59;93787.59;;;9.58;61.32
65376;BME280;51976;47.332;9.404;2023-02-18T01:11:24;93786.81;;;9.57;61.44
65376;BME280;51976;47.332;9.404;2023-02-18T01:13:50;93766.22;;;9.46;61.71
65376;BME280;51976;47.332;9.404;2023-02-18T01:16:16;93763.84;;;9.49;61.47
65376;BME280;51976;47.332;9.404;2023-02-18T01:18:42;93775.63;;;9.70;61.47
65376;BME280;51976;47.332;9.404;2023-02-18T01:21:08;93769.56;;;9.58;61.77
65376;BME280;51976;47.332;9.404;2023-02-18T01:23:35;93773.59;;;9.56;62.23
65376;BME280;51976;47.332;9.404;2023-02-18T01:26:01;93766.34;;;9.56;62.10
65376;BME280;51976;47.332;9.404;2023-02-18T01:28:26;93773.84;;;9.54;61.75
65376;BME280;51976;47.332;9.404;2023-02-18T01:30:52;93756.63;;;9.55;61.94
65376;BME280;51976;47.332;9.404;2023-02-18T01:33:19;93748.25;;;9.52;61.95
65376;BME280;51976;47.332;9.404;2023-02-18T01:35:44;93760.97;;;9.34;62.13
65376;BME280;51976;47.332;9.404;2023-02-18T01:38:10;93763.88;;;9.28;62.10
65376;BME280;51976;47.332;9.404;2023-02-18T01:40:42;93747.50;;;9.34;62.08
65376;BME280;51976;47.332;9.404;2023-02-18T01:43:10;93736.66;;;9.02;62.83
65376;BME280;51976;47.332;9.404;2023-02-18T01:45:47;93742.22;;;8.96;63.03
65376;BME280;51976;47.332;9.404;2023-02-18T01:48:20;93729.00;;;9.16;62.90
65376;BME280;51976;47.332;9.404;2023-02-18T01:50:51;93744.06;;;9.39;62.45
65376;BME280;51976;47.332;9.404;2023-02-18T01:53:22;93730.53;;;9.34;62.41
65376;BME280;51976;47.332;9.404;2023-02-18T01:55:49;93750.09;;;9.24;62.99
65376;BME280;51976;47.332;9.404;2023-02-18T01:58:15;93742.75;;;9.41;62.51
65376;BME280;51976;47.332;9.404;2023-02-18T02:00:40;93735.91;;;9.29;63.11
65376;BME280;51976;47.332;9.404;2023-02-18T02:03:06;93725.97;;;9.34;62.92
65376;BME280;51976;47.332;9.404;2023-02-18T02:05:33;93740.13;;;9.46;62.92
65376;BME280;51976;47.332;9.404;2023-02-18T02:07:59;93739.91;;;9.53;62.68
65376;BME280;51976;47.332;9.404;2023-02-18T02:10:55;93721.50;;;9.18;63.39
65376;BME280;51976;47.332;9.404;2023-02-18T02:13:46;93746.91;;;9.27;63.79
65376;BME280;51976;47.332;9.404;2023-02-18T02:16:35;93734.84;;;9.35;63.36
65376;BME280;51976;47.332;9.404;2023-02-18T02:22:34;93734.72;;;9.46;63.35
65376;BME280;51976;47.332;9.404;2023-02-18T02:25:12;93718.56;;;9.20;63.68
65376;BME280;51976;47.332;9.404;2023-02-18T02:30:58;93724.00;;;8.59;65.17
65376;BME280;51976;47.332;9.404;2023-02-18T02:36:50;93727.41;;;8.71;64.85
65376;BME280;51976;47.332;9.404;2023-02-18T02:39:29;93727.31;;;8.44;65.54
65376;BME280;51976;47.332;9.404;2023-02-18T02:42:24;93712.25;;;8.10;65.67
65376;BME280;51976;47.332;9.404;2023-02-18T02:44:56;93714.56;;;8.57;65.16
65376;BME280;51976;47.332;9.404;2023-02-18T02:47:32;93711.47;;;7.93;66.14
65376;BME280;51976;47.332;9.404;2023-02-18T02:50:05;93699.00;;;8.20;65.92
65376;BME280;51976;47.332;9.404;2023-02-18T02:52:37;93719.81;;;8.46;65.27
65376;BME280;51976;47.332;9.404;2023-02-18T02:55:08;93722.47;;;8.30;65.26
65376;BME280;51976;47.332;9.404;2023-02-18T02:57:42;93710.38;;;7.94;66.07
65376;BME280;51976;47.332;9.404;2023-02-18T03:00:09;93712.09;;;7.83;66.62
65376;BME280;51976;47.332;9.404;2023-02-18T03:03:11;93706.00;;;7.88;66.34
65376;BME280;51976;47.332;9.404;2023-02-18T03:05:43;93704.44;;;7.58;66.18
65376;BME280;51976;47.332;9.404;2023-02-18T03:08:26;93695.44;;;7.64;65.13
65376;BME280;51976;47.332;9.404;2023-02-18T03:11:03;93695.59;;;7.58;64.98
65376;BME280;51976;47.332;9.404;2023-02-18T03:13:48;93697.16;;;6.97;66.64
65376;BME280;51976;47.332;9.404;2023-02-18T03:16:24;93695.50;;;7.53;64.63
65376;BME280;51976;47.332;9.404;2023-02-18T03:19:00;93687.97;;;7.21;64.99
65376;BME280;51976;47.332;9.404;2023-02-18T03:21:56;93701.25;;;7.44;64.65
65376;BME280;51976;47.332;9.404;2023-02-18T03:24:39;93684.00;;;7.40;64.19
65376;BME280;51976;47.332;9.404;2023-02-18T03:27:16;93683.28;;;7.00;65.71
65376;BME280;51976;47.332;9.404;2023-02-18T03:29:45;93690.75;;;7.43;64.33
65376;BME280;51976;47.332;9.404;2023-02-18T03:32:16;93682.94;;;7.25;64.46
65376;BME280;51976;47.332;9.404;2023-02-18T03:34:48;93686.81;;;6.89;66.02
65376;BME280;51976;47.332;9.404;2023-02-18T03:37:15;93678.84;;;6.77;66.52
65376;BME280;51976;47.332;9.404;2023-02-18T03:39:44;93686.28;;;6.75;66.01
65376;BME280;51976;47.332;9.404;2023-02-18T03:42:11;93681.66;;;6.59;66.63
65376;BME280;51976;47.332;9.404;2023-02-18T03:44:36;93678.78;;;6.89;65.88
65376;BME280;51976;47.332;9.404;2023-02-18T03:47:02;93671.78;;;6.88;65.52
65376;BME280;51976;47.332;9.404;2023-02-18T03:49:27;93660.06;;;6.49;66.17
65376;BME280;51976;47.332;9.404;2023-02-18T03:51:53;93683.44;;;6.53;66.86
65376;BME280;51976;47.332;9.404;2023-02-18T03:54:18;93691.75;;;6.80;65.65
65376;BME280;51976;47.332;9.404;2023-02-18T03:56:44;93696.56;;;6.66;66.28
65376;BME280;51976;47.332;9.404;2023-02-18T03:59:11;93691.19;;;6.78;65.64
65376;BME280;51976;47.332;9.404;2023-02-18T04:01:37;93679.09;;;6.64;65.85
65376;BME280;51976;47.332;9.404;2023-02-18T04:04:02;93692.66;;;6.86;65.58
65376;BME280;51976;47.332;9.404;2023-02-18T04:06:28;93679.34;;;6.62;65.53
65376;BME280;51976;47.332;9.404;2023-02-18T04:08:53;93704.38;;;6.68;66.01
65376;BME280;51976;47.332;9.404;2023-02-18T04:11:19;93704.06;;;6.53;66.59
65376;BME280;51976;47.332;9.404;2023-02-18T04:13:44;93706.47;;;6.66;66.14
65376;BME280;51976;47.332;9.404;2023-02-18T04:16:09;93706.00;;;6.69;65.53
65376;BME280;51976;47.332;9.404;2023-02-18T04:18:35;93719.38;;;6.29;66.63
65376;BME280;51976;47.332;9.404;2023-02-18T04:21:00;93697.56;;;5.78;67.64
65376;BME280;51976;47.332;9.404;2023-02-18T04:23:25;93689.56;;;5.14;70.36
65376;BME280;51976;47.332;9.404;2023-02-18T04:25:51;93713.28;;;5.87;68.92
65376;BME280;51976;47.332;9.404;2023-02-18T04:28:16;93716.78;;;6.10;68.15
65376;BME280;51976;47.332;9.404;2023-02-18T04:30:46;93716.44;;;6.07;67.54
65376;BME280;51976;47.332;9.404;2023-02-18T04:33:11;93719.59;;;6.04;67.53
65376;BME280;51976;47.332;9.404;2023-02-18T04:35:37;93717.25;;;6.19;67.08
65376;BME280;51976;47.332;9.404;2023-02-18T04:38:05;93704.91;;;6.06;67.27
65376;BME280;51976;47.332;9.404;2023-02-18T04:40:30;93702.59;;;6.10;67.15
65376;BME280;51976;47.332;9.404;2023-02-18T04:42:57;93710.13;;;5.66;68.95
65376;BME280;51976;47.332;9.404;2023-02-18T04:45:23;93703.06;;;5.95;67.63
65376;BME280;51976;47.332;9.404;2023-02-18T04:47:48;93724.47;;;6.30;66.73
65376;BME280;51976;47.332;9.404;2023-02-18T04:50:13;93710.03;;;6.08;67.07
65376;BME280;51976;47.332;9.404;2023-02-18T04:52:39;93724.41;;;5.60;68.40
65376;BME280;51976;47.332;9.404;2023-02-18T04:55:04;93726.34;;;5.95;67.43
65376;BME280;51976;47.332;9.404;2023-02-18T04:57:30;93706.75;;;5.71;67.74
65376;BME280;51976;47.332;9.404;2023-02-18T04:59:55;93713.78;;;5.95;67.04
65376;BME280;51976;47.332;9.404;2023-02-18T05:02:21;93725.81;;;5.74;67.64
65376;BME280;51976;47.332;9.404;2023-02-18T05:04:46;93720.59;;;5.79;67.37
65376;BME280;51976;47.332;9.404;2023-02-18T05:07:12;93706.47;;;5.49;68.82
65376;BME280;51976;47.332;9.404;2023-02-18T05:09:37;93693.75;;;5.21;69.34
65376;BME280;51976;47.332;9.404;2023-02-18T05:12:03;93673.34;;;5.38;68.60
65376;BME280;51976;47.332;9.404;2023-02-18T05:14:28;93674.88;;;5.46;68.50
65376;BME280;51976;47.332;9.404;2023-02-18T05:16:53;93676.47;;;5.47;68.47
65376;BME280;51976;47.332;9.404;2023-02-18T05:19:19;93676.16;;;5.67;68.21
65376;BME280;51976;47.332;9.404;2023-02-18T05:21:44;93658.09;;;5.27;69.36
65376;BME280;51976;47.332;9.404;2023-02-18T05:24:10;93662.25;;;5.12;69.74
65376;BME280;51976;47.332;9.404;2023-02-18T05:26:36;93659.06;;;5.56;68.53
65376;BME280;51976;47.332;9.404;2023-02-18T05:29:02;93652.53;;;5.52;68.41
65376;BME280;51976;47.332;9.404;2023-02-18T05:31:28;93660.69;;;5.57;68.54
65376;BME280;51976;47.332;9.404;2023-02-18T05:33:53;93663.50;;;5.74;67.93
65376;BME280;51976;47.332;9.404;2023-02-18T05:36:18;93672.56;;;5.85;67.92
65376;BME280;51976;47.332;9.404;2023-02-18T05:38:44;93657.31;;;5.62;68.20
65376;BME280;51976;47.332;9.404;2023-02-18T05:41:09;93638.09;;;5.30;68.52
65376;BME280;51976;47.332;9.404;2023-02-18T05:43:35;93667.69;;;5.05;69.66
65376;BME280;51976;47.332;9.404;2023-02-18T05:46:20;93681.53;;;5.14;69.72
65376;BME280;51976;47.332;9.404;2023-02-18T05:48:45;93670.66;;;4.97;70.09
65376;BME280;51976;47.332;9.404;2023-02-18T05:51:11;93679.78;;;5.07;70.16
65376;BME280;51976;47.332;9.404;2023-02-18T05:53:36;93681.91;;;5.29;69.76
65376;BME280;51976;47.332;9.404;2023-02-18T05:56:02;93662.88;;;4.95;70.40
65376;BME280;51976;47.332;9.404;2023-02-18T05:58:27;93687.03;;;5.30;69.63
65376;BME280;51976;47.332;9.404;2023-02-18T06:00:52;93692.50;;;5.35;69.47
65376;BME280;51976;47.332;9.404;2023-02-18T06:03:18;93678.88;;;5.14;70.68
65376;BME280;51976;47.332;9.404;2023-02-18T06:05:43;93685.38;;;5.18;69.93
65376;BME280;51976;47.332;9.404;2023-02-18T06:08:09;93687.19;;;5.05;70.59
65376;BME280;51976;47.332;9.404;2023-02-18T06:10:34;93689.97;;;4.99;70.46
65376;BME280;51976;47.332;9.404;2023-02-18T06:12:59;93691.06;;;5.21;69.28
65376;BME280;51976;47.332;9.404;2023-02-18T06:15:26;93679.31;;;5.10;69.07
65376;BME280;51976;47.332;9.404;2023-02-18T06:17:52;93659.13;;;5.15;68.66
65376;BME280;51976;47.332;9.404;2023-02-18T06:20:17;93686.25;;;5.41;68.63
65376;BME280;51976;47.332;9.404;2023-02-18T06:22:42;93688.78;;;5.36;68.52
65376;BME280;51976;47.332;9.404;2023-02-18T06:25:08;93699.38;;;5.01;69.80
65376;BME280;51976;47.332;9.404;2023-02-18T06:27:33;93695.88;;;4.89;70.35
65376;BME280;51976;47.332;9.404;2023-02-18T06:29:59;93697.88;;;5.05;69.84
65376;BME280;51976;47.332;9.404;2023-02-18T06:32:24;93704.69;;;5.20;69.15
65376;BME280;51976;47.332;9.404;2023-02-18T06:34:49;93680.38;;;4.80;69.90
65376;BME280;51976;47.332;9.404;2023-02-18T06:37:15;93685.78;;;4.91;70.27
65376;BME280;51976;47.332;9.404;2023-02-18T06:39:40;93697.94;;;4.87;70.55
65376;BME280;51976;47.332;9.404;2023-02-18T06:42:06;93676.34;;;4.59;71.19
65376;BME280;51976;47.332;9.404;2023-02-18T06:44:31;93690.78;;;4.99;70.20
65376;BME280;51976;47.332;9.404;2023-02-18T06:46:56;93692.19;;;4.72;70.79
65376;BME280;51976;47.332;9.404;2023-02-18T06:49:22;93686.47;;;4.98;70.19
65376;BME280;51976;47.332;9.404;2023-02-18T06:51:47;93653.44;;;4.81;69.96
65376;BME280;51976;47.332;9.404;2023-02-18T06:54:12;93681.31;;;5.15;69.42
65376;BME280;51976;47.332;9.404;2023-02-18T06:56:38;93682.72;;;5.29;69.18
65376;BME280;51976;47.332;9.404;2023-02-18T06:59:03;93660.66;;;5.34;68.86
65376;BME280;51976;47.332;9.404;2023-02-18T07:01:29;93687.72;;;4.84;70.49
65376;BME280;51976;47.332;9.404;2023-02-18T07:03:54;93670.50;;;4.80;70.98
65376;BME280;51976;47.332;9.404;2023-02-18T07:06:19;93668.03;;;5.08;70.05
65376;BME280;51976;47.332;9.404;2023-02-18T07:08:45;93668.09;;;5.32;69.26
65376;BME280;51976;47.332;9.404;2023-02-18T07:11:10;93664.50;;;5.38;69.29
65376;BME280;51976;47.332;9.404;2023-02-18T07:13:36;93678.06;;;5.25;69.74
65376;BME280;51976;47.332;9.404;2023-02-18T07:16:01;93670.56;;;4.92;71.72
65376;BME280;51976;47.332;9.404;2023-02-18T07:18:26;93674.13;;;5.27;70.84
65376;BME280;51976;47.332;9.404;2023-02-18T07:20:52;93674.16;;;5.51;70.00
65376;BME280;51976;47.332;9.404;2023-02-18T07:23:17;93653.94;;;5.55;69.24
65376;BME280;51976;47.332;9.404;2023-02-18T07:25:43;93669.13;;;5.19;70.49
65376;BME280;51976;47.332;9.404;2023-02-18T07:28:10;93656.03;;;5.53;69.50
65376;BME280;51976;47.332;9.404;2023-02-18T07:30:35;93652.50;;;5.29;69.85
65376;BME280;51976;47.332;9.404;2023-02-18T07:33:01;93665.47;;;5.67;69.56
65376;BME280;51976;47.332;9.404;2023-02-18T07:35:26;93670.09;;;5.83;68.72
65376;BME280;51976;47.332;9.404;2023-02-18T07:37:51;93669.88;;;5.61;69.66
65376;BME280;51976;47.332;9.404;2023-02-18T07:40:20;93670.81;;;5.78;69.54
65376;BME280;51976;47.332;9.404;2023-02-18T07:42:46;93668.50;;;6.05;68.58
65376;BME280;51976;47.332;9.404;2023-02-18T07:45:13;93671.75;;;6.19;68.46
65376;BME280;51976;47.332;9.404;2023-02-18T07:47:39;93665.91;;;5.75;69.60
65376;BME280;51976;47.332;9.404;2023-02-18T07:50:06;93651.03;;;6.15;68.69
65376;BME280;51976;47.332;9.404;2023-02-18T07:52:32;93654.28;;;6.28;68.16
65376;BME280;51976;47.332;9.404;2023-02-18T07:54:57;93618.56;;;6.23;67.76
65376;BME280;51976;47.332;9.404;2023-02-18T07:57:23;93650.81;;;6.16;68.99
65376;BME280;51976;47.332;9.404;2023-02-18T07:59:48;93661.47;;;6.39;68.33
65376;BME280;51976;47.332;9.404;2023-02-18T08:02:17;93643.66;;;6.33;68.45
65376;BME280;51976;47.332;9.404;2023-02-18T08:04:43;93671.16;;;6.69;68.22
65376;BME280;51976;47.332;9.404;2023-02-18T08:07:12;93651.47;;;7.03;66.59
65376;BME280;51976;47.332;9.404;2023-02-18T08:09:38;93661.81;;;7.28;66.46
65376;BME280;51976;47.332;9.404;2023-02-18T08:12:03;93662.78;;;7.22;66.49
65376;BME280;51976;47.332;9.404;2023-02-18T08:14:29;93659.81;;;7.35;66.31
65376;BME280;51976;47.332;9.404;2023-02-18T08:16:54;93656.97;;;7.59;65.63
65376;BME280;51976;47.332;9.404;2023-02-18T08:19:20;93629.53;;;7.40;65.91
65376;BME280;51976;47.332;9.404;2023-02-18T08:21:45;93659.94;;;7.45;66.88
65376;BME280;51976;47.332;9.404;2023-02-18T08:24:10;93656.38;;;7.73;65.82
65376;BME280;51976;47.332;9.404;2023-02-18T08:26:36;93662.44;;;8.19;65.01
65376;BME280;51976;47.332;9.404;2023-02-18T08:29:01;93643.88;;;8.34;64.46
65376;BME280;51976;47.332;9.404;2023-02-18T08:31:28;93650.13;;;8.23;64.43
65376;BME280;51976;47.332;9.404;2023-02-18T08:33:55;93662.00;;;8.44;64.99
65376;BME280;51976;47.332;9.404;2023-02-18T08:36:21;93660.25;;;8.55;64.56
65376;BME280;51976;47.332;9.404;2023-02-18T08:38:47;93659.50;;;8.59;64.62
65376;BME280;51976;47.332;9.404;2023-02-18T08:41:13;93634.94;;;8.51;64.58
65376;BME280;51976;47.332;9.404;2023-02-18T08:43:40;93665.44;;;8.83;65.21
65376;BME280;51976;47.332;9.404;2023-02-18T08:46:05;93664.00;;;9.24;63.86
65376;BME280;51976;47.332;9.404;2023-02-18T08:48:31;93662.78;;;9.37;63.71
65376;BME280;51976;47.332;9.404;2023-02-18T08:50:57;93659.56;;;9.40;63.47
65376;BME280;51976;47.332;9.404;2023-02-18T08:53:23;93659.34;;;9.73;63.14
65376;BME280;51976;47.332;9.404;2023-02-18T08:55:48;93657.16;;;9.70;62.70
65376;BME280;51976;47.332;9.404;2023-02-18T08:58:14;93649.13;;;9.75;62.44
65376;BME280;51976;47.332;9.404;2023-02-18T09:00:42;93655.72;;;9.95;61.89
65376;BME280;51976;47.332;9.404;2023-02-18T09:03:11;93640.06;;;9.92;61.63
65376;BME280;51976;47.332;9.404;2023-02-18T09:05:38;93674.88;;;10.30;61.31
65376;BME280;51976;47.332;9.404;2023-02-18T09:08:04;93670.03;;;10.00;62.16
65376;BME280;51976;47.332;9.404;2023-02-18T09:10:30;93663.44;;;10.18;61.55
65376;BME280;51976;47.332;9.404;2023-02-18T09:12:55;93647.31;;;10.23;61.34
65376;BME280;51976;47.332;9.404;2023-02-18T09:15:21;93657.47;;;10.53;60.82
65376;BME280;51976;47.332;9.404;2023-02-18T09:17:46;93643.03;;;10.27;61.01
65376;BME280;51976;47.332;9.404;2023-02-18T09:20:12;93656.94;;;10.56;60.79
65376;BME280;51976;47.332;9.404;2023-02-18T09:22:37;93658.47;;;10.42;60.80
65376;BME280;51976;47.332;9.404;2023-02-18T09:25:03;93642.63;;;10.50;60.58
65376;BME280;51976;47.332;9.404;2023-02-18T09:27:28;93649.41;;;10.58;59.97
65376;BME280;51976;47.332;9.404;2023-02-18T09:29:53;93658.81;;;10.50;60.52
65376;BME280;51976;47.332;9.404;2023-02-18T09:32:19;93651.03;;;10.59;60.31
65376;BME280;51976;47.332;9.404;2023-02-18T09:34:44;93640.28;;;10.64;60.10
65376;BME280;51976;47.332;9.404;2023-02-18T09:37:10;93649.69;;;10.67;59.95
65376;BME280;51976;47.332;9.404;2023-02-18T09:39:36;93650.16;;;10.48;60.59
65376;BME280;51976;47.332;9.404;2023-02-18T09:42:03;93633.09;;;10.90;59.45
65376;BME280;51976;47.332;9.404;2023-02-18T09:44:34;93639.59;;;10.99;59.13
65376;BME280;51976;47.332;9.404;2023-02-18T09:47:19;93626.16;;;11.25;58.71
65376;BME280;51976;47.332;9.404;2023-02-18T09:49:50;93632.00;;;10.96;59.21
65376;BME280;51976;47.332;9.404;2023-02-18T09:52:25;93630.03;;;10.71;59.81
65376;BME280;51976;47.332;9.404;2023-02-18T09:54:52;93612.03;;;10.87;59.80
65376;BME280;51976;47.332;9.404;2023-02-18T09:57:24;93625.00;;;10.95;59.12
65376;BME280;51976;47.332;9.404;2023-02-18T09:59:56;93606.09;;;10.80;59.47
65376;BME280;51976;47.332;9.404;2023-02-18T10:02:23;93614.75;;;10.87;59.38
65376;BME280;51976;47.332;9.404;2023-02-18T10:04:49;93591.06;;;11.09;58.70
65376;BME280;51976;47.332;9.404;2023-02-18T10:07:27;93609.94;;;11.04;58.86
65376;BME280;51976;47.332;9.404;2023-02-18T10:09:55;93606.69;;;11.07;58.88
65376;BME280;51976;47.332;9.404;2023-02-18T10:12:24;93592.13;;;11.08;58.49
65376;BME280;51976;47.332;9.404;2023-02-18T10:14:52;93605.28;;;10.84;58.90
65376;BME280;51976;47.332;9.404;2023-02-18T10:17:20;93602.34;;;10.86;59.06
65376;BME280;51976;47.332;9.404;2023-02-18T10:19:47;93597.00;;;11.11;58.73
65376;BME280;51976;47.332;9.404;2023-02-18T10:22:15;93596.47;;;11.25;58.46
65376;BME280;51976;47.332;9.404;2023-02-18T10:24:43;93596.44;;;11.09;58.74
65376;BME280;51976;47.332;9.404;2023-02-18T10:27:15;93593.22;;;11.23;58.25
65376;BME280;51976;47.332;9.404;2023-02-18T10:29:42;93584.56;;;11.05;58.58
65376;BME280;51976;47.332;9.404;2023-02-18T10:32:18;93598.38;;;11.19;58.46
65376;BME280;51976;47.332;9.404;2023-02-18T10:34:47;93598.13;;;11.56;57.59
65376;BME280;51976;47.332;9.404;2023-02-18T10:37:41;93591.38;;;11.38;57.94
65376;BME280;51976;47.332;9.404;2023-02-18T10:40:42;93585.97;;;11.43;57.85
65376;BME280;51976;47.332;9.404;2023-02-18T10:43:42;93559.22;;;11.27;58.04
65376;BME280;51976;47.332;9.404;2023-02-18T10:46:36;93591.94;;;11.45;58.09
65376;BME280;51976;47.332;9.404;2023-02-18T10:49:24;93600.28;;;11.49;58.34
65376;BME280;51976;47.332;9.404;2023-02-18T10:51:57;93591.38;;;11.59;58.34
65376;BME280;51976;47.332;9.404;2023-02-18T10:54:25;93586.25;;;11.42;58.45
65376;BME280;51976;47.332;9.404;2023-02-18T10:56:53;93599.47;;;11.53;58.21
65376;BME280;51976;47.332;9.404;2023-02-18T10:59:26;93597.31;;;11.66;57.51
65376;BME280;51976;47.332;9.404;2023-02-18T11:01:58;93593.25;;;11.53;57.80
65376;BME280;51976;47.332;9.404;2023-02-18T11:04:27;93601.09;;;11.60;57.89
65376;BME280;51976;47.332;9.404;2023-02-18T11:07:04;93594.38;;;11.82;56.80
65376;BME280;51976;47.332;9.404;2023-02-18T11:09:39;93599.22;;;11.85;56.87
65376;BME280;51976;47.332;9.404;2023-02-18T11:12:18;93594.09;;;11.79;58.47
65376;BME280;51976;47.332;9.404;2023-02-18T11:14:48;93581.94;;;12.02;57.10
65376;BME280;51976;47.332;9.404;2023-02-18T11:17:25;93573.97;;;12.46;55.17
65376;BME280;51976;47.332;9.404;2023-02-18T11:19:55;93571.00;;;12.42;54.80
65376;BME280;51976;47.332;9.404;2023-02-18T11:22:28;93549.03;;;12.59;54.12
65376;BME280;51976;47.332;9.404;2023-02-18T11:25:02;93551.44;;;12.66;53.93
65376;BME280;51976;47.332;9.404;2023-02-18T11:27:34;93560.59;;;12.80;53.18
65376;BME280;51976;47.332;9.404;2023-02-18T11:30:13;93542.47;;;12.75;52.74
65376;BME280;51976;47.332;9.404;2023-02-18T11:32:40;93551.38;;;12.81;52.58
65376;BME280;51976;47.332;9.404;2023-02-18T11:35:06;93519.53;;;12.63;52.56
65376;BME280;51976;47.332;9.404;2023-02-18T11:37:40;93536.00;;;12.71;52.92
65376;BME280;51976;47.332;9.404;2023-02-18T11:40:06;93537.16;;;13.09;52.56
65376;BME280;51976;47.332;9.404;2023-02-18T11:42:32;93529.63;;;12.96;53.06
65376;BME280;51976;47.332;9.404;2023-02-18T11:44:58;93524.94;;;13.12;53.32
65376;BME280;51976;47.332;9.404;2023-02-18T11:47:27;93503.34;;;13.02;52.90
65376;BME280;51976;47.332;9.404;2023-02-18T11:50:13;93512.72;;;13.14;53.33
65376;BME280;51976;47.332;9.404;2023-02-18T11:52:42;93506.50;;;13.19;52.89
65376;BME280;51976;47.332;9.404;2023-02-18T11:55:18;93500.75;;;13.31;51.12
65376;BME280;51976;47.332;9.404;2023-02-18T11:57:49;93493.28;;;13.12;50.88
65376;BME280;51976;47.332;9.404;2023-02-18T12:00:36;93501.69;;;13.45;49.66
65376;BME280;51976;47.332;9.404;2023-02-18T12:03:07;93485.88;;;13.28;49.72
65376;BME280;51976;47.332;9.404;2023-02-18T12:05:38;93486.34;;;13.35;49.89
65376;BME280;51976;47.332;9.404;2023-02-18T12:08:12;93496.56;;;13.43;50.27
65376;BME280;51976;47.332;9.404;2023-02-18T12:10:42;93479.66;;;13.57;50.01
65376;BME280;51976;47.332;9.404;2023-02-18T12:13:24;93463.50;;;13.46;49.29
65376;BME280;51976;47.332;9.404;2023-02-18T12:16:09;93478.03;;;13.27;50.45
65376;BME280;51976;47.332;9.404;2023-02-18T12:19:07;93485.78;;;13.38;49.66
65376;BME280;51976;47.332;9.404;2023-02-18T12:21:44;93468.34;;;13.15;49.47
65376;BME280;51976;47.332;9.404;2023-02-18T12:24:33;93455.94;;;13.09;50.06
65376;BME280;51976;47.332;9.404;2023-02-18T12:27:15;93457.41;;;12.92;50.41
65376;BME280;51976;47.332;9.404;2023-02-18T12:30:20;93457.88;;;13.04;50.92
65376;BME280;51976;47.332;9.404;2023-02-18T12:33:07;93450.22;;;13.16;50.13
65376;BME280;51976;47.332;9.404;2023-02-18T12:35:40;93459.00;;;12.98;50.27
65376;BME280;51976;47.332;9.404;2023-02-18T12:41:29;93441.44;;;12.90;50.17
65376;BME280;51976;47.332;9.404;2023-02-18T12:44:23;93436.13;;;12.80;50.35
65376;BME280;51976;47.332;9.404;2023-02-18T12:47:17;93437.84;;;12.66;50.89
65376;BME280;51976;47.332;9.404;2023-02-18T12:53:03;93425.56;;;12.83;50.92
65376;BME280;51976;47.332;9.404;2023-02-18T12:56:11;93418.66;;;13.01;50.68
65376;BME280;51976;47.332;9.404;2023-02-18T12:58:52;93422.41;;;13.05;50.32
65376;BME280;51976;47.332;9.404;2023-02-18T13:01:32;93402.38;;;13.06;50.58
65376;BME280;51976;47.332;9.404;2023-02-18T13:04:18;93379.75;;;12.92;50.72
65376;BME280;51976;47.332;9.404;2023-02-18T13:07:12;93413.59;;;12.89;50.74
65376;BME280;51976;47.332;9.404;2023-02-18T13:10:08;93403.72;;;13.09;50.59
65376;BME280;51976;47.332;9.404;2023-02-18T13:12:54;93399.09;;;13.09;50.49
65376;BME280;51976;47.332;9.404;2023-02-18T13:15:28;93408.75;;;13.20;50.09
65376;BME280;51976;47.332;9.404;2023-02-18T13:17:57;93373.53;;;13.26;49.62
65376;BME280;51976;47.332;9.404;2023-02-18T13:20:34;93376.88;;;13.41;49.25
65376;BME280;51976;47.332;9.404;2023-02-18T13:23:02;93380.63;;;13.45;49.14
65376;BME280;51976;47.332;9.404;2023-02-18T13:25:33;93368.88;;;13.55;48.41
65376;BME280;51976;47.332;9.404;2023-02-18T13:28:06;93368.38;;;13.77;48.37
65376;BME280;51976;47.332;9.404;2023-02-18T13:30:49;93363.75;;;13.77;48.20
65376;BME280;51976;47.332;9.404;2023-02-18T13:36:43;93360.78;;;13.98;47.88
65376;BME280;51976;47.332;9.404;2023-02-18T13:39:08;93358.03;;;14.03;47.63
65376;BME280;51976;47.332;9.404;2023-02-18T13:41:38;93344.25;;;13.99;47.59